Cominto, Arkansas
Current Conditions -  °F | °C
As of 5:53 AM on Friday 21 Nov 2014 (Local Time) from KLLQ Reporting Station
Haze Haze  
Wind Chill: 50°   Ceiling: 7000
Heat Index: 50°   Visibility: 5mi
Dew Point: 48°   Wind: 0mph
Humidity: 93%   Direction: NA
Pressure: 30.24"   Gusts: NA
Location:  33.5819°N, 91.7907°W
Report Text: KLLQ 211153Z AUTO 00000KT 5SM BR FEW032 BKN070 OVC085 10/09 A3024 RMK AO2 RAB23E46 SLP238 P0000 60001 70001 T01000089 10106 20094 53008
Loading
Personal Weather Stations






























Interactive Weather Map New forecast layout! Learn more

10-Day Weather Forecast

Advertisements
Track Severe Weather on mobile